sensor_id;sensor_type;location;lat;lon;timestamp;temperature;humidity
70170;DHT22;57543;45.442;9.212;2022-07-29T00:01:26;26.49;58.89
70170;DHT22;57543;45.442;9.212;2022-07-29T00:04:29;26.51;58.87
70170;DHT22;57543;45.442;9.212;2022-07-29T00:07:33;26.68;56.70
70170;DHT22;57543;45.442;9.212;2022-07-29T00:10:37;26.48;57.14
70170;DHT22;57543;45.442;9.212;2022-07-29T00:13:41;26.45;57.86
70170;DHT22;57543;45.442;9.212;2022-07-29T00:16:45;26.48;58.25
70170;DHT22;57543;45.442;9.212;2022-07-29T00:19:48;26.34;58.56
70170;DHT22;57543;45.442;9.212;2022-07-29T00:22:52;26.37;57.12
70170;DHT22;57543;45.442;9.212;2022-07-29T00:25:56;26.39;57.05
70170;DHT22;57543;45.442;9.212;2022-07-29T00:29:01;26.41;57.22
70170;DHT22;57543;45.442;9.212;2022-07-29T00:32:05;26.42;57.68
70170;DHT22;57543;45.442;9.212;2022-07-29T00:35:09;26.44;58.37
70170;DHT22;57543;45.442;9.212;2022-07-29T00:38:31;26.59;57.86
70170;DHT22;57543;45.442;9.212;2022-07-29T00:41:34;26.56;58.12
70170;DHT22;57543;45.442;9.212;2022-07-29T00:44:41;26.68;58.50
70170;DHT22;57543;45.442;9.212;2022-07-29T00:47:45;26.62;59.03
70170;DHT22;57543;45.442;9.212;2022-07-29T00:50:49;26.53;58.92
70170;DHT22;57543;45.442;9.212;2022-07-29T00:53:53;26.60;57.94
70170;DHT22;57543;45.442;9.212;2022-07-29T00:56:58;26.41;59.24
70170;DHT22;57543;45.442;9.212;2022-07-29T01:00:08;26.29;60.13
70170;DHT22;57543;45.442;9.212;2022-07-29T01:03:12;26.21;61.17
70170;DHT22;57543;45.442;9.212;2022-07-29T01:06:18;26.14;60.75
70170;DHT22;57543;45.442;9.212;2022-07-29T01:09:22;26.18;59.70
70170;DHT22;57543;45.442;9.212;2022-07-29T01:12:28;26.21;59.50
70170;DHT22;57543;45.442;9.212;2022-07-29T01:15:43;26.21;60.24
70170;DHT22;57543;45.442;9.212;2022-07-29T01:18:49;26.31;60.78
70170;DHT22;57543;45.442;9.212;2022-07-29T01:21:57;26.27;60.53
70170;DHT22;57543;45.442;9.212;2022-07-29T01:28:49;26.24;59.62
70170;DHT22;57543;45.442;9.212;2022-07-29T01:35:36;26.35;58.97
70170;DHT22;57543;45.442;9.212;2022-07-29T01:38:42;26.46;58.77
70170;DHT22;57543;45.442;9.212;2022-07-29T01:41:57;26.55;58.94
70170;DHT22;57543;45.442;9.212;2022-07-29T01:45:10;26.41;58.86
70170;DHT22;57543;45.442;9.212;2022-07-29T01:48:21;26.45;58.52
70170;DHT22;57543;45.442;9.212;2022-07-29T01:51:32;26.55;58.79
70170;DHT22;57543;45.442;9.212;2022-07-29T01:54:46;26.52;58.24
70170;DHT22;57543;45.442;9.212;2022-07-29T01:57:53;26.28;59.14
70170;DHT22;57543;45.442;9.212;2022-07-29T02:00:58;26.29;59.40
70170;DHT22;57543;45.442;9.212;2022-07-29T02:04:03;26.38;58.97
70170;DHT22;57543;45.442;9.212;2022-07-29T02:07:10;26.31;59.25
70170;DHT22;57543;45.442;9.212;2022-07-29T02:10:19;26.31;59.68
70170;DHT22;57543;45.442;9.212;2022-07-29T02:13:24;26.31;59.72
70170;DHT22;57543;45.442;9.212;2022-07-29T02:16:30;26.29;60.28
70170;DHT22;57543;45.442;9.212;2022-07-29T02:19:37;26.14;61.09
70170;DHT22;57543;45.442;9.212;2022-07-29T02:22:42;26.13;60.86
70170;DHT22;57543;45.442;9.212;2022-07-29T02:25:56;26.11;60.68
70170;DHT22;57543;45.442;9.212;2022-07-29T02:29:01;26.20;60.44
70170;DHT22;57543;45.442;9.212;2022-07-29T02:32:06;26.20;60.46
70170;DHT22;57543;45.442;9.212;2022-07-29T02:35:12;26.08;60.40
70170;DHT22;57543;45.442;9.212;2022-07-29T02:38:16;26.13;60.57
70170;DHT22;57543;45.442;9.212;2022-07-29T02:41:48;26.07;60.49
70170;DHT22;57543;45.442;9.212;2022-07-29T02:44:52;26.25;60.36
70170;DHT22;57543;45.442;9.212;2022-07-29T02:47:57;26.11;60.92
70170;DHT22;57543;45.442;9.212;2022-07-29T02:51:09;25.93;61.14
70170;DHT22;57543;45.442;9.212;2022-07-29T02:54:30;26.03;59.92
70170;DHT22;57543;45.442;9.212;2022-07-29T02:57:44;26.01;60.46
70170;DHT22;57543;45.442;9.212;2022-07-29T03:00:50;25.97;60.50
70170;DHT22;57543;45.442;9.212;2022-07-29T03:03:55;25.97;60.49
70170;DHT22;57543;45.442;9.212;2022-07-29T03:06:59;25.90;60.91
70170;DHT22;57543;45.442;9.212;2022-07-29T03:10:04;25.92;60.86
70170;DHT22;57543;45.442;9.212;2022-07-29T03:13:09;25.98;61.20
70170;DHT22;57543;45.442;9.212;2022-07-29T03:16:14;25.87;61.67
70170;DHT22;57543;45.442;9.212;2022-07-29T03:19:19;25.79;60.34
70170;DHT22;57543;45.442;9.212;2022-07-29T03:22:24;25.82;58.90
70170;DHT22;57543;45.442;9.212;2022-07-29T03:25:28;25.80;59.04
70170;DHT22;57543;45.442;9.212;2022-07-29T03:28:31;25.83;59.78
70170;DHT22;57543;45.442;9.212;2022-07-29T03:31:36;25.70;60.13
70170;DHT22;57543;45.442;9.212;2022-07-29T03:34:39;25.83;59.99
70170;DHT22;57543;45.442;9.212;2022-07-29T03:37:43;25.73;60.50
70170;DHT22;57543;45.442;9.212;2022-07-29T03:40:54;25.84;60.39
70170;DHT22;57543;45.442;9.212;2022-07-29T03:43:58;25.73;60.21
70170;DHT22;57543;45.442;9.212;2022-07-29T03:47:03;25.72;59.82
70170;DHT22;57543;45.442;9.212;2022-07-29T03:50:11;25.67;60.18
70170;DHT22;57543;45.442;9.212;2022-07-29T03:53:16;25.59;59.73
70170;DHT22;57543;45.442;9.212;2022-07-29T03:56:21;25.56;59.57
70170;DHT22;57543;45.442;9.212;2022-07-29T03:59:26;25.53;59.72
70170;DHT22;57543;45.442;9.212;2022-07-29T04:02:32;25.59;59.37
70170;DHT22;57543;45.442;9.212;2022-07-29T04:05:35;25.63;59.39
70170;DHT22;57543;45.442;9.212;2022-07-29T04:08:39;25.83;59.47
70170;DHT22;57543;45.442;9.212;2022-07-29T04:11:43;25.80;59.91
70170;DHT22;57543;45.442;9.212;2022-07-29T04:14:48;25.61;60.14
70170;DHT22;57543;45.442;9.212;2022-07-29T04:17:52;25.58;58.62
70170;DHT22;57543;45.442;9.212;2022-07-29T04:20:56;25.55;59.23
70170;DHT22;57543;45.442;9.212;2022-07-29T04:24:02;25.50;59.21
70170;DHT22;57543;45.442;9.212;2022-07-29T04:27:06;25.62;59.01
70170;DHT22;57543;45.442;9.212;2022-07-29T04:30:10;25.75;59.70
70170;DHT22;57543;45.442;9.212;2022-07-29T04:33:14;25.83;59.77
70170;DHT22;57543;45.442;9.212;2022-07-29T04:36:18;25.87;60.31
70170;DHT22;57543;45.442;9.212;2022-07-29T04:39:22;25.77;60.60
70170;DHT22;57543;45.442;9.212;2022-07-29T04:42:26;25.72;60.91
70170;DHT22;57543;45.442;9.212;2022-07-29T04:45:30;25.77;60.75
70170;DHT22;57543;45.442;9.212;2022-07-29T04:48:33;25.80;60.72
70170;DHT22;57543;45.442;9.212;2022-07-29T04:51:37;25.87;61.00
70170;DHT22;57543;45.442;9.212;2022-07-29T04:54:41;25.83;61.09
70170;DHT22;57543;45.442;9.212;2022-07-29T04:57:45;25.66;61.68
70170;DHT22;57543;45.442;9.212;2022-07-29T05:00:49;25.83;61.58
70170;DHT22;57543;45.442;9.212;2022-07-29T05:03:53;25.84;61.50
70170;DHT22;57543;45.442;9.212;2022-07-29T05:06:57;25.90;60.87
70170;DHT22;57543;45.442;9.212;2022-07-29T05:10:01;25.90;60.87
70170;DHT22;57543;45.442;9.212;2022-07-29T05:13:05;25.73;61.20
70170;DHT22;57543;45.442;9.212;2022-07-29T05:16:09;25.82;61.15
70170;DHT22;57543;45.442;9.212;2022-07-29T05:19:13;25.83;61.08
70170;DHT22;57543;45.442;9.212;2022-07-29T05:22:18;25.96;61.25
70170;DHT22;57543;45.442;9.212;2022-07-29T05:25:23;25.92;60.54
70170;DHT22;57543;45.442;9.212;2022-07-29T05:28:27;26.10;60.33
70170;DHT22;57543;45.442;9.212;2022-07-29T05:31:30;26.21;59.43
70170;DHT22;57543;45.442;9.212;2022-07-29T05:34:34;26.25;58.76
70170;DHT22;57543;45.442;9.212;2022-07-29T05:37:37;26.20;58.99
70170;DHT22;57543;45.442;9.212;2022-07-29T05:40:42;26.11;59.14
70170;DHT22;57543;45.442;9.212;2022-07-29T05:43:45;26.11;59.17
70170;DHT22;57543;45.442;9.212;2022-07-29T05:46:49;26.28;58.83
70170;DHT22;57543;45.442;9.212;2022-07-29T05:49:53;26.35;58.96
70170;DHT22;57543;45.442;9.212;2022-07-29T05:52:57;26.44;59.05
70170;DHT22;57543;45.442;9.212;2022-07-29T05:56:03;26.56;57.94
70170;DHT22;57543;45.442;9.212;2022-07-29T05:59:08;26.71;57.49
70170;DHT22;57543;45.442;9.212;2022-07-29T06:02:11;26.76;55.55
70170;DHT22;57543;45.442;9.212;2022-07-29T06:05:16;26.82;55.39
70170;DHT22;57543;45.442;9.212;2022-07-29T06:08:20;26.97;53.93
70170;DHT22;57543;45.442;9.212;2022-07-29T06:11:23;27.04;54.52
70170;DHT22;57543;45.442;9.212;2022-07-29T06:14:27;27.04;53.88
70170;DHT22;57543;45.442;9.212;2022-07-29T06:17:31;27.11;54.52
70170;DHT22;57543;45.442;9.212;2022-07-29T06:20:35;27.20;53.19
70170;DHT22;57543;45.442;9.212;2022-07-29T06:23:39;27.28;51.36
70170;DHT22;57543;45.442;9.212;2022-07-29T06:26:43;27.27;51.35
70170;DHT22;57543;45.442;9.212;2022-07-29T06:29:47;27.23;51.79
70170;DHT22;57543;45.442;9.212;2022-07-29T06:32:51;27.15;52.05
70170;DHT22;57543;45.442;9.212;2022-07-29T06:35:55;27.18;51.77
70170;DHT22;57543;45.442;9.212;2022-07-29T06:38:58;27.33;50.36
70170;DHT22;57543;45.442;9.212;2022-07-29T06:42:05;27.35;52.29
70170;DHT22;57543;45.442;9.212;2022-07-29T06:45:11;27.34;52.89
70170;DHT22;57543;45.442;9.212;2022-07-29T06:48:14;27.41;53.01
70170;DHT22;57543;45.442;9.212;2022-07-29T06:51:19;27.53;52.51
70170;DHT22;57543;45.442;9.212;2022-07-29T06:54:23;27.42;53.05
70170;DHT22;57543;45.442;9.212;2022-07-29T06:57:26;27.46;53.35
70170;DHT22;57543;45.442;9.212;2022-07-29T07:00:30;27.41;53.83
70170;DHT22;57543;45.442;9.212;2022-07-29T07:03:34;27.45;53.84
70170;DHT22;57543;45.442;9.212;2022-07-29T07:06:38;27.58;53.67
70170;DHT22;57543;45.442;9.212;2022-07-29T07:09:42;27.65;53.98
70170;DHT22;57543;45.442;9.212;2022-07-29T07:12:45;27.66;53.71
70170;DHT22;57543;45.442;9.212;2022-07-29T07:15:50;27.80;52.40
70170;DHT22;57543;45.442;9.212;2022-07-29T07:18:55;27.97;53.08
70170;DHT22;57543;45.442;9.212;2022-07-29T07:21:59;28.00;53.76
70170;DHT22;57543;45.442;9.212;2022-07-29T07:25:03;27.92;53.52
70170;DHT22;57543;45.442;9.212;2022-07-29T07:28:07;27.74;54.72
70170;DHT22;57543;45.442;9.212;2022-07-29T07:31:11;27.86;54.15
70170;DHT22;57543;45.442;9.212;2022-07-29T07:34:15;27.98;52.64
70170;DHT22;57543;45.442;9.212;2022-07-29T07:37:19;28.15;52.86
70170;DHT22;57543;45.442;9.212;2022-07-29T07:40:24;28.28;53.16
70170;DHT22;57543;45.442;9.212;2022-07-29T07:43:28;28.25;53.49
70170;DHT22;57543;45.442;9.212;2022-07-29T07:46:32;28.22;53.39
70170;DHT22;57543;45.442;9.212;2022-07-29T07:49:35;28.37;53.29
70170;DHT22;57543;45.442;9.212;2022-07-29T07:52:49;28.56;52.27
70170;DHT22;57543;45.442;9.212;2022-07-29T07:55:53;28.69;52.66
70170;DHT22;57543;45.442;9.212;2022-07-29T07:58:57;28.79;50.16
70170;DHT22;57543;45.442;9.212;2022-07-29T08:02:01;28.90;49.85
70170;DHT22;57543;45.442;9.212;2022-07-29T08:05:06;29.00;49.95
70170;DHT22;57543;45.442;9.212;2022-07-29T08:08:10;28.10;54.20
70170;DHT22;57543;45.442;9.212;2022-07-29T08:11:14;27.83;56.12
70170;DHT22;57543;45.442;9.212;2022-07-29T08:14:18;28.08;55.59
70170;DHT22;57543;45.442;9.212;2022-07-29T08:17:22;28.40;54.20
70170;DHT22;57543;45.442;9.212;2022-07-29T08:20:26;28.56;53.75
70170;DHT22;57543;45.442;9.212;2022-07-29T08:23:30;28.68;53.46
70170;DHT22;57543;45.442;9.212;2022-07-29T08:26:42;28.72;53.28
70170;DHT22;57543;45.442;9.212;2022-07-29T08:29:46;28.90;52.50
70170;DHT22;57543;45.442;9.212;2022-07-29T08:32:50;29.00;50.79
70170;DHT22;57543;45.442;9.212;2022-07-29T08:35:56;28.87;50.62
70170;DHT22;57543;45.442;9.212;2022-07-29T08:39:00;29.02;49.92
70170;DHT22;57543;45.442;9.212;2022-07-29T08:42:05;29.08;49.53
70170;DHT22;57543;45.442;9.212;2022-07-29T08:45:09;29.30;49.91
70170;DHT22;57543;45.442;9.212;2022-07-29T08:48:17;29.62;49.64
70170;DHT22;57543;45.442;9.212;2022-07-29T08:51:21;29.96;47.96
70170;DHT22;57543;45.442;9.212;2022-07-29T08:54:26;30.11;47.65
70170;DHT22;57543;45.442;9.212;2022-07-29T08:57:31;29.62;48.46
70170;DHT22;57543;45.442;9.212;2022-07-29T09:00:37;28.59;50.38
70170;DHT22;57543;45.442;9.212;2022-07-29T09:03:46;28.41;51.23
70170;DHT22;57543;45.442;9.212;2022-07-29T09:06:51;28.89;50.44
70170;DHT22;57543;45.442;9.212;2022-07-29T09:09:57;29.22;49.43
70170;DHT22;57543;45.442;9.212;2022-07-29T09:13:01;29.06;49.53
70170;DHT22;57543;45.442;9.212;2022-07-29T09:16:05;28.93;49.71
70170;DHT22;57543;45.442;9.212;2022-07-29T09:19:23;28.84;50.05
70170;DHT22;57543;45.442;9.212;2022-07-29T09:22:30;29.39;49.20
70170;DHT22;57543;45.442;9.212;2022-07-29T09:25:36;30.06;47.78
70170;DHT22;57543;45.442;9.212;2022-07-29T09:28:41;30.61;46.65
70170;DHT22;57543;45.442;9.212;2022-07-29T09:31:48;31.07;44.66
70170;DHT22;57543;45.442;9.212;2022-07-29T09:35:15;31.34;44.19
70170;DHT22;57543;45.442;9.212;2022-07-29T09:38:20;31.20;44.12
70170;DHT22;57543;45.442;9.212;2022-07-29T09:41:23;31.38;43.19
70170;DHT22;57543;45.442;9.212;2022-07-29T09:44:41;31.51;42.95
70170;DHT22;57543;45.442;9.212;2022-07-29T09:47:46;31.52;43.22
70170;DHT22;57543;45.442;9.212;2022-07-29T09:50:52;31.80;43.13
70170;DHT22;57543;45.442;9.212;2022-07-29T09:53:56;32.06;42.75
70170;DHT22;57543;45.442;9.212;2022-07-29T09:56:59;31.18;43.58
70170;DHT22;57543;45.442;9.212;2022-07-29T10:00:09;30.34;45.09
70170;DHT22;57543;45.442;9.212;2022-07-29T10:03:17;30.87;44.67
70170;DHT22;57543;45.442;9.212;2022-07-29T10:06:20;31.34;44.33
70170;DHT22;57543;45.442;9.212;2022-07-29T10:09:25;31.48;43.35
70170;DHT22;57543;45.442;9.212;2022-07-29T10:12:28;31.57;44.24
70170;DHT22;57543;45.442;9.212;2022-07-29T10:15:35;31.72;43.48
70170;DHT22;57543;45.442;9.212;2022-07-29T10:18:44;31.82;43.70
70170;DHT22;57543;45.442;9.212;2022-07-29T10:21:48;31.94;43.77
70170;DHT22;57543;45.442;9.212;2022-07-29T10:24:53;31.99;45.77
70170;DHT22;57543;45.442;9.212;2022-07-29T10:27:57;31.80;42.39
70170;DHT22;57543;45.442;9.212;2022-07-29T10:31:06;30.38;45.63
70170;DHT22;57543;45.442;9.212;2022-07-29T10:34:34;30.79;45.89
70170;DHT22;57543;45.442;9.212;2022-07-29T10:44:26;31.68;44.83
70170;DHT22;57543;45.442;9.212;2022-07-29T10:48:02;31.72;44.41
70170;DHT22;57543;45.442;9.212;2022-07-29T10:51:06;31.96;43.62
70170;DHT22;57543;45.442;9.212;2022-07-29T10:54:12;32.20;43.70
70170;DHT22;57543;45.442;9.212;2022-07-29T11:00:30;32.83;42.47
70170;DHT22;57543;45.442;9.212;2022-07-29T11:03:48;32.76;43.41
70170;DHT22;57543;45.442;9.212;2022-07-29T11:07:13;32.86;42.46
70170;DHT22;57543;45.442;9.212;2022-07-29T11:10:20;33.02;41.82
70170;DHT22;57543;45.442;9.212;2022-07-29T11:17:04;33.17;42.60
70170;DHT22;57543;45.442;9.212;2022-07-29T11:20:43;33.16;43.58
70170;DHT22;57543;45.442;9.212;2022-07-29T11:23:48;33.23;42.75
70170;DHT22;57543;45.442;9.212;2022-07-29T11:27:12;33.26;42.72
70170;DHT22;57543;45.442;9.212;2022-07-29T11:30:17;33.44;41.90
70170;DHT22;57543;45.442;9.212;2022-07-29T11:33:32;33.82;42.13
70170;DHT22;57543;45.442;9.212;2022-07-29T11:36:35;34.00;40.51
70170;DHT22;57543;45.442;9.212;2022-07-29T11:39:46;34.30;39.26
70170;DHT22;57543;45.442;9.212;2022-07-29T11:42:50;33.95;39.12
70170;DHT22;57543;45.442;9.212;2022-07-29T11:45:55;33.81;40.00
70170;DHT22;57543;45.442;9.212;2022-07-29T11:48:59;33.62;41.33
70170;DHT22;57543;45.442;9.212;2022-07-29T11:52:03;33.50;41.74
70170;DHT22;57543;45.442;9.212;2022-07-29T11:55:07;33.27;41.79
70170;DHT22;57543;45.442;9.212;2022-07-29T11:58:11;32.83;42.70
70170;DHT22;57543;45.442;9.212;2022-07-29T12:01:17;32.59;43.68
70170;DHT22;57543;45.442;9.212;2022-07-29T12:04:20;32.98;43.25
70170;DHT22;57543;45.442;9.212;2022-07-29T12:07:27;33.48;42.11
70170;DHT22;57543;45.442;9.212;2022-07-29T12:10:31;33.75;40.95
70170;DHT22;57543;45.442;9.212;2022-07-29T12:13:38;33.51;41.68
70170;DHT22;57543;45.442;9.212;2022-07-29T12:16:42;33.57;41.79
70170;DHT22;57543;45.442;9.212;2022-07-29T12:19:46;33.74;41.68
70170;DHT22;57543;45.442;9.212;2022-07-29T12:22:49;33.99;41.65
70170;DHT22;57543;45.442;9.212;2022-07-29T12:25:53;34.21;41.54
70170;DHT22;57543;45.442;9.212;2022-07-29T12:28:57;34.28;41.40
70170;DHT22;57543;45.442;9.212;2022-07-29T12:32:03;34.39;40.46
70170;DHT22;57543;45.442;9.212;2022-07-29T12:35:09;34.16;41.04
70170;DHT22;57543;45.442;9.212;2022-07-29T12:38:14;33.96;41.57
70170;DHT22;57543;45.442;9.212;2022-07-29T12:41:18;33.92;41.82
70170;DHT22;57543;45.442;9.212;2022-07-29T12:44:22;34.17;40.95
70170;DHT22;57543;45.442;9.212;2022-07-29T12:47:51;34.54;40.37
70170;DHT22;57543;45.442;9.212;2022-07-29T12:51:14;34.75;40.09
70170;DHT22;57543;45.442;9.212;2022-07-29T12:54:19;35.05;39.66
70170;DHT22;57543;45.442;9.212;2022-07-29T12:57:24;34.89;40.02
70170;DHT22;57543;45.442;9.212;2022-07-29T13:00:28;34.99;39.34
70170;DHT22;57543;45.442;9.212;2022-07-29T13:03:57;34.67;39.66
70170;DHT22;57543;45.442;9.212;2022-07-29T13:07:05;34.72;39.80
70170;DHT22;57543;45.442;9.212;2022-07-29T13:13:17;34.77;39.98
70170;DHT22;57543;45.442;9.212;2022-07-29T13:16:21;34.81;39.95
70170;DHT22;57543;45.442;9.212;2022-07-29T13:19:39;34.92;39.83
70170;DHT22;57543;45.442;9.212;2022-07-29T13:22:47;35.12;39.13
70170;DHT22;57543;45.442;9.212;2022-07-29T13:25:51;35.17;38.63
70170;DHT22;57543;45.442;9.212;2022-07-29T13:28:55;35.19;38.81
70170;DHT22;57543;45.442;9.212;2022-07-29T13:31:58;35.27;39.24
70170;DHT22;57543;45.442;9.212;2022-07-29T13:35:05;35.36;38.59
70170;DHT22;57543;45.442;9.212;2022-07-29T13:38:09;35.37;38.78
70170;DHT22;57543;45.442;9.212;2022-07-29T13:41:13;35.55;38.44
70170;DHT22;57543;45.442;9.212;2022-07-29T13:44:17;35.64;38.88
70170;DHT22;57543;45.442;9.212;2022-07-29T13:47:21;35.30;39.26
70170;DHT22;57543;45.442;9.212;2022-07-29T13:50:25;35.06;39.73
70170;DHT22;57543;45.442;9.212;2022-07-29T13:53:29;34.99;39.64
70170;DHT22;57543;45.442;9.212;2022-07-29T13:56:33;34.79;40.05
70170;DHT22;57543;45.442;9.212;2022-07-29T13:59:37;34.78;39.97
70170;DHT22;57543;45.442;9.212;2022-07-29T14:02:40;34.94;39.53
70170;DHT22;57543;45.442;9.212;2022-07-29T14:05:44;35.17;38.89
70170;DHT22;57543;45.442;9.212;2022-07-29T14:08:48;35.19;38.87
70170;DHT22;57543;45.442;9.212;2022-07-29T14:11:52;34.74;39.71
70170;DHT22;57543;45.442;9.212;2022-07-29T14:14:56;34.64;40.48
70170;DHT22;57543;45.442;9.212;2022-07-29T14:18:00;34.51;41.01
70170;DHT22;57543;45.442;9.212;2022-07-29T14:21:04;34.44;41.15
70170;DHT22;57543;45.442;9.212;2022-07-29T14:24:08;34.32;41.17
70170;DHT22;57543;45.442;9.212;2022-07-29T14:27:11;34.15;41.61
70170;DHT22;57543;45.442;9.212;2022-07-29T14:30:15;33.99;42.21
70170;DHT22;57543;45.442;9.212;2022-07-29T14:33:19;33.71;42.84
70170;DHT22;57543;45.442;9.212;2022-07-29T14:36:23;33.55;42.48
70170;DHT22;57543;45.442;9.212;2022-07-29T14:39:27;33.47;43.10
70170;DHT22;57543;45.442;9.212;2022-07-29T14:42:30;33.30;43.50
70170;DHT22;57543;45.442;9.212;2022-07-29T14:45:36;33.14;43.87
70170;DHT22;57543;45.442;9.212;2022-07-29T14:48:40;32.90;44.24
70170;DHT22;57543;45.442;9.212;2022-07-29T14:51:44;32.74;44.09
70170;DHT22;57543;45.442;9.212;2022-07-29T14:54:48;32.54;44.79
70170;DHT22;57543;45.442;9.212;2022-07-29T14:57:52;32.35;44.64
70170;DHT22;57543;45.442;9.212;2022-07-29T15:00:56;32.14;44.90
70170;DHT22;57543;45.442;9.212;2022-07-29T15:03:59;32.13;45.37
70170;DHT22;57543;45.442;9.212;2022-07-29T15:07:03;32.00;46.92
70170;DHT22;57543;45.442;9.212;2022-07-29T15:10:07;31.82;47.48
70170;DHT22;57543;45.442;9.212;2022-07-29T15:13:11;31.49;47.76
70170;DHT22;57543;45.442;9.212;2022-07-29T15:16:17;31.34;48.37
70170;DHT22;57543;45.442;9.212;2022-07-29T15:19:21;30.97;49.04
70170;DHT22;57543;45.442;9.212;2022-07-29T15:22:24;30.86;50.26
70170;DHT22;57543;45.442;9.212;2022-07-29T15:25:28;30.68;56.26
70170;DHT22;57543;45.442;9.212;2022-07-29T15:28:32;30.23;63.80
70170;DHT22;57543;45.442;9.212;2022-07-29T15:31:36;29.41;65.40
70170;DHT22;57543;45.442;9.212;2022-07-29T15:34:39;28.83;66.67
70170;DHT22;57543;45.442;9.212;2022-07-29T15:37:43;28.28;67.10
70170;DHT22;57543;45.442;9.212;2022-07-29T15:40:47;27.98;69.14
70170;DHT22;57543;45.442;9.212;2022-07-29T15:43:51;28.00;65.63
70170;DHT22;57543;45.442;9.212;2022-07-29T15:46:55;27.70;66.72
70170;DHT22;57543;45.442;9.212;2022-07-29T15:50:10;27.25;68.41
70170;DHT22;57543;45.442;9.212;2022-07-29T15:53:18;27.03;67.82
70170;DHT22;57543;45.442;9.212;2022-07-29T15:56:22;26.84;70.08
70170;DHT22;57543;45.442;9.212;2022-07-29T15:59:26;26.91;69.36
70170;DHT22;57543;45.442;9.212;2022-07-29T16:02:29;26.62;68.96
70170;DHT22;57543;45.442;9.212;2022-07-29T16:05:34;26.53;68.28
70170;DHT22;57543;45.442;9.212;2022-07-29T16:08:37;26.66;67.99
70170;DHT22;57543;45.442;9.212;2022-07-29T16:11:41;26.82;67.20
70170;DHT22;57543;45.442;9.212;2022-07-29T16:14:45;26.69;66.30
70170;DHT22;57543;45.442;9.212;2022-07-29T16:17:51;26.71;69.72
70170;DHT22;57543;45.442;9.212;2022-07-29T16:20:55;26.60;71.67
70170;DHT22;57543;45.442;9.212;2022-07-29T16:23:59;26.37;67.82
70170;DHT22;57543;45.442;9.212;2022-07-29T16:27:03;26.08;68.08
70170;DHT22;57543;45.442;9.212;2022-07-29T16:30:07;25.59;69.82
70170;DHT22;57543;45.442;9.212;2022-07-29T16:33:12;25.10;70.89
70170;DHT22;57543;45.442;9.212;2022-07-29T16:36:16;24.86;72.02
70170;DHT22;57543;45.442;9.212;2022-07-29T16:39:20;24.82;72.22
70170;DHT22;57543;45.442;9.212;2022-07-29T16:42:24;24.76;71.71
70170;DHT22;57543;45.442;9.212;2022-07-29T16:45:27;24.49;73.73
70170;DHT22;57543;45.442;9.212;2022-07-29T16:48:32;24.45;74.69
70170;DHT22;57543;45.442;9.212;2022-07-29T16:51:35;24.35;76.42
70170;DHT22;57543;45.442;9.212;2022-07-29T16:54:39;24.38;77.06
70170;DHT22;57543;45.442;9.212;2022-07-29T16:57:43;24.39;76.51
70170;DHT22;57543;45.442;9.212;2022-07-29T17:00:47;24.52;75.72
70170;DHT22;57543;45.442;9.212;2022-07-29T17:03:51;24.41;76.71
70170;DHT22;57543;45.442;9.212;2022-07-29T17:07:10;24.62;75.69
70170;DHT22;57543;45.442;9.212;2022-07-29T17:10:14;24.69;75.94
70170;DHT22;57543;45.442;9.212;2022-07-29T17:13:17;24.79;74.80
70170;DHT22;57543;45.442;9.212;2022-07-29T17:16:21;24.90;73.95
70170;DHT22;57543;45.442;9.212;2022-07-29T17:19:33;24.91;74.60
70170;DHT22;57543;45.442;9.212;2022-07-29T17:22:37;24.90;74.10
70170;DHT22;57543;45.442;9.212;2022-07-29T17:25:42;24.88;74.53
70170;DHT22;57543;45.442;9.212;2022-07-29T17:28:46;24.93;74.38
70170;DHT22;57543;45.442;9.212;2022-07-29T17:31:51;24.98;74.25
70170;DHT22;57543;45.442;9.212;2022-07-29T17:34:55;24.97;74.19
70170;DHT22;57543;45.442;9.212;2022-07-29T17:37:58;25.06;73.83
70170;DHT22;57543;45.442;9.212;2022-07-29T17:41:02;25.11;73.68
70170;DHT22;57543;45.442;9.212;2022-07-29T17:44:06;24.93;75.48
70170;DHT22;57543;45.442;9.212;2022-07-29T17:47:12;24.86;75.67
70170;DHT22;57543;45.442;9.212;2022-07-29T17:50:15;24.73;75.50
70170;DHT22;57543;45.442;9.212;2022-07-29T17:53:19;24.76;75.29
70170;DHT22;57543;45.442;9.212;2022-07-29T17:56:23;24.79;75.55
70170;DHT22;57543;45.442;9.212;2022-07-29T17:59:27;24.70;75.65
70170;DHT22;57543;45.442;9.212;2022-07-29T18:02:31;24.82;75.10
70170;DHT22;57543;45.442;9.212;2022-07-29T18:05:34;24.95;73.86
70170;DHT22;57543;45.442;9.212;2022-07-29T18:08:38;25.10;73.17
70170;DHT22;57543;45.442;9.212;2022-07-29T18:11:42;25.21;74.04
70170;DHT22;57543;45.442;9.212;2022-07-29T18:14:46;25.27;73.88
70170;DHT22;57543;45.442;9.212;2022-07-29T18:17:50;25.39;73.25
70170;DHT22;57543;45.442;9.212;2022-07-29T18:20:54;25.70;72.29
70170;DHT22;57543;45.442;9.212;2022-07-29T18:23:58;25.70;72.19
70170;DHT22;57543;45.442;9.212;2022-07-29T18:27:02;25.77;71.81
70170;DHT22;57543;45.442;9.212;2022-07-29T18:30:06;25.83;72.03
70170;DHT22;57543;45.442;9.212;2022-07-29T18:33:11;25.76;72.12
70170;DHT22;57543;45.442;9.212;2022-07-29T18:36:20;25.75;71.99
70170;DHT22;57543;45.442;9.212;2022-07-29T18:39:24;25.73;71.37
70170;DHT22;57543;45.442;9.212;2022-07-29T18:42:28;25.83;70.34
70170;DHT22;57543;45.442;9.212;2022-07-29T18:45:32;25.62;71.13
70170;DHT22;57543;45.442;9.212;2022-07-29T18:48:35;25.46;71.79
70170;DHT22;57543;45.442;9.212;2022-07-29T18:51:39;25.50;71.52
70170;DHT22;57543;45.442;9.212;2022-07-29T18:54:43;25.43;72.07
70170;DHT22;57543;45.442;9.212;2022-07-29T18:57:47;25.31;72.22
70170;DHT22;57543;45.442;9.212;2022-07-29T19:00:51;25.24;72.93
70170;DHT22;57543;45.442;9.212;2022-07-29T19:03:55;25.12;73.39
70170;DHT22;57543;45.442;9.212;2022-07-29T19:06:59;25.11;73.69
70170;DHT22;57543;45.442;9.212;2022-07-29T19:10:05;25.00;73.35
70170;DHT22;57543;45.442;9.212;2022-07-29T19:13:09;24.98;74.15
70170;DHT22;57543;45.442;9.212;2022-07-29T19:16:13;24.84;74.90
70170;DHT22;57543;45.442;9.212;2022-07-29T19:19:16;24.82;74.34
70170;DHT22;57543;45.442;9.212;2022-07-29T19:22:21;24.97;74.54
70170;DHT22;57543;45.442;9.212;2022-07-29T19:25:25;24.86;74.71
70170;DHT22;57543;45.442;9.212;2022-07-29T19:28:29;24.97;73.72
70170;DHT22;57543;45.442;9.212;2022-07-29T19:31:33;25.03;73.22
70170;DHT22;57543;45.442;9.212;2022-07-29T19:34:37;25.15;72.43
70170;DHT22;57543;45.442;9.212;2022-07-29T19:37:43;25.12;72.76
70170;DHT22;57543;45.442;9.212;2022-07-29T19:40:47;25.11;72.66
70170;DHT22;57543;45.442;9.212;2022-07-29T19:43:51;24.93;73.71
70170;DHT22;57543;45.442;9.212;2022-07-29T19:46:55;24.88;73.97
70170;DHT22;57543;45.442;9.212;2022-07-29T19:49:59;24.91;73.76
70170;DHT22;57543;45.442;9.212;2022-07-29T19:53:03;24.77;73.78
70170;DHT22;57543;45.442;9.212;2022-07-29T19:56:07;24.70;73.75